Time;durP1;ratioP1;P1;durP2;ratioP2;P2;SDS_P1;SDS_P2;PMS_P1;PMS_P2;Temp;Humidity;BMP_temperature;BMP_pressure;BME280_temperature;BME280_humidity;BME280_pressure;Samples;Min_cycle;Max_cycle;Signal;HPM_P1;HPM_P2
2022/04/12 00:00:40;;;;;;;3.08;1.40;;;19.80;40.20;;;;;;1871482;76;21130;-61
2022/04/12 00:03:08;;;;;;;2.05;1.80;;;19.70;39.70;;;;;;1872441;76;21122;-62
2022/04/12 00:05:37;;;;;;;3.27;2.02;;;19.70;39.70;;;;;;1872741;76;21087;-60
2022/04/12 00:08:05;;;;;;;4.33;2.40;;;19.70;39.60;;;;;;1874404;76;21160;-61
2022/04/12 00:10:32;;;;;;;2.47;1.70;;;19.70;39.60;;;;;;1872540;76;21497;-62
2022/04/12 00:13:00;;;;;;;2.50;1.75;;;19.70;39.60;;;;;;1873780;76;21094;-61
2022/04/12 00:15:27;;;;;;;3.37;2.00;;;19.70;39.60;;;;;;1874096;76;21028;-61
2022/04/12 00:20:41;;;;;;;2.60;1.90;;;19.70;39.70;;;;;;1874006;76;21190;-60
2022/04/12 00:23:08;;;;;;;3.22;2.00;;;19.70;39.70;;;;;;1880718;75;21109;-59
2022/04/12 00:25:35;;;;;;;3.55;2.15;;;19.70;39.80;;;;;;1873210;76;21095;-60
2022/04/12 00:28:04;;;;;;;3.33;2.20;;;19.70;39.80;;;;;;1872051;76;21133;-61
2022/04/12 00:30:31;;;;;;;7.25;1.80;;;19.70;39.80;;;;;;1874129;76;21610;-61
2022/04/12 00:32:58;;;;;;;4.12;1.98;;;19.70;39.90;;;;;;1874220;76;21110;-62
2022/04/12 00:35:26;;;;;;;2.98;2.30;;;19.70;40.20;;;;;;1873508;76;21547;-60
2022/04/12 00:37:53;;;;;;;2.85;1.72;;;19.70;39.90;;;;;;1872459;76;21120;-60
2022/04/12 00:40:24;;;;;;;2.85;1.55;;;19.70;40.40;;;;;;1874378;76;21119;-60
2022/04/12 00:42:51;;;;;;;1.87;1.70;;;19.60;40.30;;;;;;1875247;75;21110;-60
2022/04/12 00:45:18;;;;;;;2.72;1.90;;;19.70;40.40;;;;;;1873365;76;21028;-62
2022/04/12 00:47:45;;;;;;;2.98;1.80;;;19.60;40.10;;;;;;1872575;76;21365;-61
2022/04/12 00:50:14;;;;;;;3.25;2.05;;;19.70;40.20;;;;;;1874006;76;21544;-62
2022/04/12 00:52:44;;;;;;;2.67;1.70;;;19.70;40.30;;;;;;1873338;76;21157;-60
2022/04/12 00:55:12;;;;;;;3.37;1.85;;;19.70;40.70;;;;;;1874996;75;21579;-60
2022/04/12 00:57:39;;;;;;;2.45;1.87;;;19.60;40.70;;;;;;1875902;76;21043;-61
2022/04/12 01:00:07;;;;;;;5.00;2.20;;;19.70;40.70;;;;;;1874910;76;21114;-62
2022/04/12 01:02:35;;;;;;;4.28;1.90;;;19.60;40.70;;;;;;1875064;76;21059;-61
2022/04/12 01:05:04;;;;;;;3.10;2.12;;;19.60;40.80;;;;;;1876272;76;21122;-62
2022/04/12 01:07:31;;;;;;;2.80;1.92;;;19.60;41.40;;;;;;1875019;76;21098;-61
2022/04/12 01:09:59;;;;;;;2.90;2.02;;;19.60;40.60;;;;;;1876448;76;22154;-61
2022/04/12 01:12:38;;;;;;;2.55;1.62;;;19.60;40.90;;;;;;1874777;76;21106;-62
2022/04/12 01:14:55;;;;;;;2.62;1.90;;;19.60;41.20;;;;;;1873845;76;21461;-60
2022/04/12 01:17:23;;;;;;;4.45;1.87;;;19.60;41.20;;;;;;1877726;75;21118;-60
2022/04/12 01:19:51;;;;;;;5.05;1.75;;;19.60;41.30;;;;;;1895380;76;21102;-62
2022/04/12 01:22:20;;;;;;;4.40;1.98;;;19.60;41.20;;;;;;1895665;76;21628;-61
2022/04/12 01:24:48;;;;;;;1.90;1.45;;;19.60;41.30;;;;;;1895720;75;21149;-61
2022/04/12 01:27:15;;;;;;;2.02;1.80;;;19.60;41.10;;;;;;1895147;76;21644;-61
2022/04/12 01:29:42;;;;;;;2.92;1.82;;;19.60;41.30;;;;;;1895082;76;21164;-61
2022/04/12 01:32:10;;;;;;;2.55;2.00;;;19.60;41.40;;;;;;1895634;75;21567;-59
2022/04/12 01:34:37;;;;;;;2.77;1.90;;;19.60;41.50;;;;;;1895389;75;21177;-60
2022/04/12 01:37:05;;;;;;;3.75;2.62;;;19.60;41.20;;;;;;1895589;76;21114;-60
2022/04/12 01:39:33;;;;;;;2.22;1.80;;;19.60;41.30;;;;;;1895376;76;21630;-61
2022/04/12 01:42:00;;;;;;;2.75;1.85;;;19.50;41.10;;;;;;1895468;75;21153;-61
2022/04/12 01:44:27;;;;;;;2.05;1.82;;;19.50;41.20;;;;;;1895607;76;21176;-61
2022/04/12 01:46:55;;;;;;;3.35;1.95;;;19.50;41.40;;;;;;1895209;75;21115;-60
2022/04/12 01:49:22;;;;;;;2.75;2.05;;;19.50;41.80;;;;;;1895267;76;21586;-61
2022/04/12 01:51:50;;;;;;;3.22;2.10;;;19.50;41.00;;;;;;1895487;76;21128;-61
2022/04/12 01:54:18;;;;;;;2.62;1.95;;;19.50;41.30;;;;;;1895800;75;21079;-62
2022/04/12 01:56:45;;;;;;;3.60;1.90;;;19.50;41.90;;;;;;1848673;76;21678;-60
2022/04/12 01:59:12;;;;;;;2.90;2.02;;;19.50;41.50;;;;;;1842679;78;21058;-61
2022/04/12 02:01:40;;;;;;;4.45;2.42;;;19.50;41.40;;;;;;1842185;78;21121;-61
2022/04/12 02:04:07;;;;;;;3.65;2.33;;;19.50;41.10;;;;;;1832896;78;21087;-61
2022/04/12 02:06:34;;;;;;;3.65;2.22;;;19.50;41.50;;;;;;1830690;78;21122;-61
2022/04/12 02:09:02;;;;;;;2.67;1.90;;;19.50;41.40;;;;;;1830691;78;21119;-60
2022/04/12 02:11:29;;;;;;;2.92;1.95;;;19.50;41.50;;;;;;1831023;78;21188;-59
2022/04/12 02:13:56;;;;;;;3.92;2.10;;;19.50;41.70;;;;;;1830968;78;21334;-62
2022/04/12 02:16:24;;;;;;;2.77;2.10;;;19.50;41.60;;;;;;1831235;78;21090;-59
2022/04/12 02:18:51;;;;;;;4.42;2.22;;;19.50;41.60;;;;;;1831110;78;21397;-61
2022/04/12 02:21:18;;;;;;;4.47;2.08;;;19.50;41.60;;;;;;1830739;78;21204;-62
2022/04/12 02:23:45;;;;;;;2.95;2.20;;;19.50;41.70;;;;;;1830427;78;22264;-61
2022/04/12 02:26:13;;;;;;;3.22;2.08;;;19.50;41.60;;;;;;1831090;78;21059;-60
2022/04/12 02:28:40;;;;;;;2.35;1.85;;;19.50;41.50;;;;;;1831149;78;21579;-61
2022/04/12 02:31:07;;;;;;;3.08;2.10;;;19.50;41.60;;;;;;1831282;78;21114;-61
2022/04/12 02:33:35;;;;;;;3.20;2.10;;;19.50;41.50;;;;;;1831081;78;22159;-61
2022/04/12 02:36:02;;;;;;;4.08;2.00;;;19.50;41.40;;;;;;1831170;78;21110;-61
2022/04/12 02:38:29;;;;;;;3.77;2.72;;;19.40;41.30;;;;;;1831251;78;21609;-61
2022/04/12 02:40:57;;;;;;;3.00;2.00;;;19.40;41.50;;;;;;1831248;78;21401;-61
2022/04/12 02:43:24;;;;;;;3.98;2.35;;;19.40;41.40;;;;;;1831082;78;21622;-61
2022/04/12 02:45:52;;;;;;;4.67;1.80;;;19.40;41.50;;;;;;1831234;78;21200;-61
2022/04/12 02:48:19;;;;;;;3.08;2.12;;;19.40;41.60;;;;;;1833004;76;21152;-61
2022/04/12 02:50:47;;;;;;;4.03;2.40;;;19.40;41.40;;;;;;1886424;76;21087;-62
2022/04/12 02:53:15;;;;;;;3.27;2.47;;;19.40;41.30;;;;;;1886413;76;21075;-62
2022/04/12 02:55:42;;;;;;;3.20;2.20;;;19.40;41.50;;;;;;1886264;76;21675;-61
2022/04/12 02:58:09;;;;;;;4.00;2.58;;;19.40;41.50;;;;;;1886354;76;21185;-62
2022/04/12 03:00:37;;;;;;;2.80;2.22;;;19.40;41.50;;;;;;1886637;76;22271;-61
2022/04/12 03:03:04;;;;;;;4.17;2.37;;;19.40;41.40;;;;;;1886413;76;21172;-62
2022/04/12 03:05:31;;;;;;;6.37;2.50;;;19.40;41.40;;;;;;1886500;76;21609;-61
2022/04/12 03:07:59;;;;;;;2.52;1.80;;;19.40;41.60;;;;;;1886576;76;21528;-61
2022/04/12 03:10:26;;;;;;;2.90;1.77;;;19.40;41.50;;;;;;1886572;76;21130;-61
2022/04/12 03:12:53;;;;;;;2.60;2.00;;;19.40;41.30;;;;;;1886718;76;21369;-62
2022/04/12 03:15:21;;;;;;;3.12;2.05;;;19.40;41.40;;;;;;1886482;76;21064;-61
2022/04/12 03:17:48;;;;;;;2.80;1.90;;;19.40;41.40;;;;;;1886323;76;21216;-61
2022/04/12 03:20:15;;;;;;;3.60;2.20;;;19.40;41.60;;;;;;1886303;76;21133;-60
2022/04/12 03:22:43;;;;;;;2.80;2.20;;;19.40;41.60;;;;;;1886185;76;21196;-62
2022/04/12 03:25:11;;;;;;;4.78;2.22;;;19.40;41.70;;;;;;1886250;76;21102;-61
2022/04/12 03:27:38;;;;;;;2.85;2.00;;;19.40;41.30;;;;;;1886423;76;21107;-61
2022/04/12 03:30:06;;;;;;;4.22;2.10;;;19.40;41.30;;;;;;1886201;76;21497;-61
2022/04/12 03:32:34;;;;;;;2.65;2.20;;;19.40;42.10;;;;;;1886659;76;21082;-61
2022/04/12 03:35:01;;;;;;;2.83;2.15;;;19.40;41.30;;;;;;1886543;76;21021;-61
2022/04/12 03:37:28;;;;;;;2.30;2.05;;;19.40;41.70;;;;;;1886525;76;21475;-63
2022/04/12 03:39:56;;;;;;;4.22;2.12;;;19.30;41.50;;;;;;1875096;75;21168;-62
2022/04/12 03:42:23;;;;;;;2.72;2.12;;;19.40;41.40;;;;;;1856060;75;21487;-61
2022/04/12 03:44:51;;;;;;;3.12;2.50;;;19.40;41.40;;;;;;1876027;76;21087;-60
2022/04/12 03:47:18;;;;;;;2.62;1.95;;;19.40;41.60;;;;;;1886430;76;21169;-61
2022/04/12 03:49:45;;;;;;;5.97;2.15;;;19.40;41.50;;;;;;1875902;76;21094;-62
2022/04/12 03:52:13;;;;;;;3.12;2.22;;;19.30;41.40;;;;;;1880597;76;21058;-61
2022/04/12 03:54:40;;;;;;;3.00;2.30;;;19.40;41.30;;;;;;1880758;76;21114;-61
2022/04/12 03:57:07;;;;;;;5.45;2.22;;;19.40;41.20;;;;;;1878021;76;21149;-61
2022/04/12 03:59:35;;;;;;;4.80;2.50;;;19.40;41.50;;;;;;1876846;76;21140;-61
2022/04/12 04:02:02;;;;;;;5.80;2.72;;;19.40;41.70;;;;;;1877268;76;21133;-62
2022/04/12 04:04:29;;;;;;;2.45;1.80;;;19.40;41.50;;;;;;1869038;75;21105;-62
2022/04/12 04:06:57;;;;;;;2.83;1.85;;;19.30;41.70;;;;;;1871904;76;21221;-61
2022/04/12 04:09:24;;;;;;;3.33;1.98;;;19.30;42.30;;;;;;1877043;76;21123;-63
2022/04/12 04:11:51;;;;;;;3.58;1.80;;;19.40;41.70;;;;;;1877181;76;21193;-62
2022/04/12 04:14:19;;;;;;;3.62;2.08;;;19.30;41.60;;;;;;1877157;76;21143;-61
2022/04/12 04:16:46;;;;;;;5.40;2.27;;;19.30;41.60;;;;;;1876955;76;21150;-61
2022/04/12 04:19:13;;;;;;;2.60;1.92;;;19.30;41.60;;;;;;1877608;75;21567;-61
2022/04/12 04:21:41;;;;;;;3.42;2.30;;;19.30;41.70;;;;;;1901287;75;21133;-61
2022/04/12 04:24:08;;;;;;;2.10;1.90;;;19.40;41.70;;;;;;1892237;76;21706;-61
2022/04/12 04:26:35;;;;;;;3.85;2.30;;;19.40;41.80;;;;;;1892480;76;21071;-61
2022/04/12 04:29:03;;;;;;;2.80;1.80;;;19.30;41.50;;;;;;1892478;76;21591;-62
2022/04/12 04:31:30;;;;;;;4.17;1.80;;;19.30;41.40;;;;;;1892212;76;21106;-62
2022/04/12 04:33:57;;;;;;;2.85;2.20;;;19.30;41.60;;;;;;1892104;76;21114;-63
2022/04/12 04:36:25;;;;;;;3.33;1.82;;;19.30;41.30;;;;;;1892135;76;21118;-60
2022/04/12 04:38:52;;;;;;;5.58;1.95;;;19.30;41.50;;;;;;1892127;76;21140;-60
2022/04/12 04:41:19;;;;;;;2.98;2.10;;;19.30;41.50;;;;;;1892183;76;21188;-60
2022/04/12 04:43:47;;;;;;;2.65;1.98;;;19.30;41.70;;;;;;1891539;76;21700;-60
2022/04/12 04:46:15;;;;;;;3.12;2.15;;;19.30;41.40;;;;;;1891951;76;21122;-61
2022/04/12 04:48:42;;;;;;;2.77;1.98;;;19.30;41.50;;;;;;1892422;76;21512;-61
2022/04/12 04:51:10;;;;;;;2.40;1.82;;;19.30;41.30;;;;;;1892353;76;21199;-61
2022/04/12 04:53:37;;;;;;;2.70;2.00;;;19.30;41.50;;;;;;1892154;76;21883;-62
2022/04/12 04:56:05;;;;;;;2.60;1.65;;;19.30;41.50;;;;;;1892381;76;21564;-61
2022/04/12 04:58:33;;;;;;;4.60;2.10;;;19.30;41.70;;;;;;1892536;76;21107;-62
2022/04/12 05:01:00;;;;;;;3.60;1.80;;;19.30;41.50;;;;;;1892452;75;21126;-62
2022/04/12 05:03:27;;;;;;;6.92;1.80;;;19.30;41.40;;;;;;1892615;76;21517;-61
2022/04/12 05:05:55;;;;;;;2.85;2.00;;;19.30;41.40;;;;;;1892273;76;21102;-62
2022/04/12 05:08:23;;;;;;;3.08;2.10;;;19.40;41.30;;;;;;1892489;76;21051;-63
2022/04/12 05:10:51;;;;;;;11.05;2.10;;;19.40;41.20;;;;;;1892555;76;21134;-62
2022/04/12 05:13:18;;;;;;;2.65;2.10;;;19.40;41.70;;;;;;1890715;75;21067;-61
2022/04/12 05:15:45;;;;;;;3.22;2.27;;;19.40;41.60;;;;;;1875617;75;21097;-61
2022/04/12 05:18:13;;;;;;;3.05;2.33;;;19.40;41.40;;;;;;1877659;76;21192;-62
2022/04/12 05:20:40;;;;;;;3.37;1.95;;;19.40;41.40;;;;;;1877657;76;21058;-62
2022/04/12 05:23:07;;;;;;;2.98;2.00;;;19.40;41.40;;;;;;1877316;76;21054;-62
2022/04/12 05:25:35;;;;;;;3.52;1.95;;;19.40;41.50;;;;;;1877163;76;21090;-62
2022/04/12 05:28:02;;;;;;;2.92;2.10;;;19.40;41.50;;;;;;1877713;76;21098;-62
2022/04/12 05:30:30;;;;;;;2.80;2.10;;;19.40;41.60;;;;;;1877615;76;21088;-63
2022/04/12 05:32:57;;;;;;;2.75;1.82;;;19.40;41.60;;;;;;1876649;76;21157;-63
2022/04/12 05:35:25;;;;;;;2.55;1.82;;;19.40;41.70;;;;;;1877070;76;21059;-63
2022/04/12 05:37:53;;;;;;;2.62;1.95;;;19.40;41.60;;;;;;1877380;76;21098;-62
2022/04/12 05:40:21;;;;;;;3.35;2.25;;;19.40;41.60;;;;;;1877579;76;21723;-59
2022/04/12 05:42:49;;;;;;;4.53;1.80;;;19.40;41.40;;;;;;1877400;76;21110;-61
2022/04/12 05:45:17;;;;;;;3.12;1.85;;;19.40;41.50;;;;;;1877198;76;21114;-60
2022/04/12 05:47:52;;;;;;;2.40;1.77;;;19.40;41.40;;;;;;1877658;76;21105;-60
2022/04/12 05:50:21;;;;;;;2.67;2.08;;;19.40;41.40;;;;;;1877790;76;21066;-60
2022/04/12 05:52:48;;;;;;;2.92;1.92;;;19.50;41.30;;;;;;1877866;76;21203;-59
2022/04/12 05:55:17;;;;;;;2.70;2.12;;;19.50;41.70;;;;;;1877545;76;21160;-63
2022/04/12 05:57:52;;;;;;;4.05;2.20;;;19.50;41.30;;;;;;1857465;76;21165;-60
2022/04/12 06:00:21;;;;;;;4.05;2.10;;;19.50;41.30;;;;;;1835319;77;21143;-60
2022/04/12 06:02:48;;;;;;;1.95;1.70;;;19.50;41.60;;;;;;1837462;77;21210;-60
2022/04/12 06:05:16;;;;;;;2.90;1.98;;;19.50;41.20;;;;;;1839315;77;21107;-60
2022/04/12 06:07:44;;;;;;;2.27;1.67;;;19.60;41.10;;;;;;1837843;77;21114;-60
2022/04/12 06:10:12;;;;;;;2.62;1.80;;;19.60;41.40;;;;;;1832866;77;21159;-61
2022/04/12 06:12:39;;;;;;;2.85;1.90;;;19.60;41.20;;;;;;1832680;78;21112;-61
2022/04/12 06:15:07;;;;;;;2.50;2.12;;;19.60;41.10;;;;;;1832630;78;21543;-60
2022/04/12 06:17:36;;;;;;;3.08;2.02;;;19.60;41.00;;;;;;1833589;78;21604;-61
2022/04/12 06:20:07;;;;;;;11.88;2.58;;;19.70;41.20;;;;;;1834111;78;21128;-61
2022/04/12 06:22:34;;;;;;;2.50;1.85;;;19.60;41.20;;;;;;1833422;78;22218;-61
2022/04/12 06:25:02;;;;;;;3.37;1.90;;;19.60;41.30;;;;;;1833305;78;21158;-61
2022/04/12 06:27:36;;;;;;;3.00;2.42;;;19.60;41.30;;;;;;1833550;78;21088;-60
2022/04/12 06:30:07;;;;;;;2.85;2.20;;;19.70;41.30;;;;;;1833593;78;21711;-61
2022/04/12 06:32:34;;;;;;;3.20;1.92;;;19.70;41.20;;;;;;1833462;78;21112;-61
2022/04/12 06:35:02;;;;;;;3.02;1.87;;;19.70;41.30;;;;;;1833150;78;21101;-62
2022/04/12 06:37:30;;;;;;;4.22;1.72;;;19.70;41.00;;;;;;1832990;78;21540;-62
2022/04/12 06:39:57;;;;;;;6.78;1.50;;;19.70;41.20;;;;;;1842396;76;21144;-60
2022/04/12 06:42:25;;;;;;;3.52;2.25;;;19.70;41.00;;;;;;1875890;76;21106;-61
2022/04/12 06:44:52;;;;;;;2.62;1.72;;;19.70;41.20;;;;;;1875986;76;21661;-61
2022/04/12 06:47:20;;;;;;;3.20;2.08;;;19.70;41.40;;;;;;1876129;76;21356;-60
2022/04/12 06:49:48;;;;;;;2.30;2.10;;;19.70;41.50;;;;;;1876117;76;21508;-62
2022/04/12 06:52:16;;;;;;;6.22;1.77;;;19.60;41.30;;;;;;1875291;76;21216;-62
2022/04/12 06:54:44;;;;;;;2.70;1.80;;;19.70;41.40;;;;;;1875274;76;21571;-61
2022/04/12 06:57:11;;;;;;;4.37;1.72;;;19.80;41.10;;;;;;1875783;76;21161;-62
2022/04/12 06:59:39;;;;;;;3.55;2.10;;;19.80;40.90;;;;;;1914425;75;21353;-61
2022/04/12 07:02:06;;;;;;;3.33;2.20;;;19.80;40.80;;;;;;1904546;75;21086;-61
2022/04/12 07:04:33;;;;;;;2.25;1.80;;;19.90;40.90;;;;;;1909739;75;21105;-61
2022/04/12 07:07:01;;;;;;;1.82;1.50;;;19.90;40.90;;;;;;1910164;75;21146;-63
2022/04/12 07:09:28;;;;;;;2.00;1.80;;;19.90;40.90;;;;;;1898646;75;21156;-62
2022/04/12 07:11:57;;;;;;;3.15;2.00;;;19.90;40.70;;;;;;1877168;76;21195;-61
2022/04/12 07:14:24;;;;;;;3.62;2.05;;;20.00;40.50;;;;;;1877094;76;21121;-62
2022/04/12 07:16:51;;;;;;;6.05;1.80;;;20.00;40.10;;;;;;1876948;76;21153;-62
2022/04/12 07:19:18;;;;;;;3.05;2.05;;;20.00;40.80;;;;;;1877010;76;21113;-61
2022/04/12 07:21:47;;;;;;;2.47;1.90;;;20.00;40.60;;;;;;1877275;76;21129;-61
2022/04/12 07:24:14;;;;;;;2.80;1.95;;;20.10;40.80;;;;;;1877617;76;21097;-63
2022/04/12 07:26:41;;;;;;;3.90;1.92;;;20.10;40.90;;;;;;1877563;76;21129;-63
2022/04/12 07:29:09;;;;;;;2.58;1.77;;;20.10;40.70;;;;;;1878295;75;21780;-62
2022/04/12 07:31:36;;;;;;;2.45;1.82;;;20.10;40.60;;;;;;1866983;76;21016;-63
2022/04/12 07:34:03;;;;;;;3.58;2.05;;;20.10;40.40;;;;;;1860792;77;21673;-61
2022/04/12 07:36:31;;;;;;;3.60;1.72;;;20.20;40.40;;;;;;1860716;76;21032;-61
2022/04/12 07:38:58;;;;;;;2.22;1.72;;;20.20;40.50;;;;;;1865524;76;21696;-61
2022/04/12 07:41:25;;;;;;;2.33;1.50;;;20.20;40.20;;;;;;1883111;75;21098;-62
2022/04/12 07:43:53;;;;;;;2.42;1.60;;;20.20;40.10;;;;;;1877030;75;21597;-63
2022/04/12 07:46:20;;;;;;;2.62;2.00;;;20.30;40.10;;;;;;1866294;76;21641;-61
2022/04/12 07:48:47;;;;;;;2.25;1.70;;;20.30;40.00;;;;;;1876945;75;21090;-62
2022/04/12 07:51:15;;;;;;;4.80;1.87;;;20.30;40.00;;;;;;1877851;75;21768;-61
2022/04/12 07:53:42;;;;;;;2.42;1.60;;;20.30;39.80;;;;;;1878910;75;21162;-61
2022/04/12 07:56:09;;;;;;;2.65;2.08;;;20.40;39.70;;;;;;1873941;76;22183;-62
2022/04/12 07:58:37;;;;;;;4.10;2.22;;;20.40;39.70;;;;;;1878352;75;21118;-63
2022/04/12 08:01:04;;;;;;;3.15;1.80;;;20.40;39.60;;;;;;1884127;75;21613;-62
2022/04/12 08:03:31;;;;;;;3.05;1.55;;;20.50;39.60;;;;;;1874243;76;21031;-62
2022/04/12 08:05:59;;;;;;;4.37;2.08;;;20.50;39.60;;;;;;1878870;75;21806;-62
2022/04/12 08:08:26;;;;;;;3.65;1.90;;;20.50;39.50;;;;;;1872342;75;21094;-62
2022/04/12 08:10:53;;;;;;;5.47;2.15;;;20.60;39.50;;;;;;1859875;76;21646;-63
2022/04/12 08:13:20;;;;;;;2.37;1.75;;;20.50;39.40;;;;;;1856604;75;21098;-62
2022/04/12 08:15:48;;;;;;;2.00;1.70;;;20.50;39.40;;;;;;1875201;76;21497;-62
2022/04/12 08:18:15;;;;;;;2.30;2.00;;;20.50;39.40;;;;;;1873980;76;21114;-62
2022/04/12 08:20:42;;;;;;;3.77;1.95;;;20.60;39.30;;;;;;1874440;76;21521;-63
2022/04/12 08:23:10;;;;;;;3.72;1.92;;;20.60;39.30;;;;;;1874310;76;21114;-63
2022/04/12 08:25:37;;;;;;;3.77;1.87;;;20.60;39.50;;;;;;1874795;76;21044;-62
2022/04/12 08:28:06;;;;;;;2.60;1.62;;;20.60;39.50;;;;;;1875300;76;21105;-62
2022/04/12 08:30:33;;;;;;;3.95;2.00;;;20.60;39.40;;;;;;1874156;76;21197;-62
2022/04/12 08:33:01;;;;;;;3.00;2.12;;;20.60;39.40;;;;;;1876430;76;21122;-62
2022/04/12 08:35:29;;;;;;;2.83;1.90;;;20.70;39.30;;;;;;1873230;76;21135;-62
2022/04/12 08:37:56;;;;;;;3.30;1.60;;;20.70;39.30;;;;;;1874704;76;21496;-62
2022/04/12 08:40:23;;;;;;;4.55;1.87;;;20.70;39.00;;;;;;1874147;76;21110;-63
2022/04/12 08:42:51;;;;;;;3.00;1.82;;;20.70;36.60;;;;;;1868787;75;21118;-63
2022/04/12 08:45:18;;;;;;;7.78;2.30;;;20.70;35.20;;;;;;1877335;76;21177;-64
2022/04/12 08:47:45;;;;;;;5.15;1.95;;;20.70;37.30;;;;;;1881903;75;21455;-60
2022/04/12 08:50:13;;;;;;;3.50;1.62;;;20.80;37.30;;;;;;1887186;75;21121;-62
2022/04/12 08:52:40;;;;;;;2.22;1.60;;;20.90;37.30;;;;;;1873449;75;21082;-64
2022/04/12 08:55:08;;;;;;;2.42;1.77;;;21.00;37.00;;;;;;1887349;75;21728;-63
2022/04/12 08:57:35;;;;;;;7.40;1.98;;;21.00;37.10;;;;;;1875529;75;21070;-62
2022/04/12 09:00:04;;;;;;;3.55;2.22;;;21.10;36.80;;;;;;1875560;76;21198;-63
2022/04/12 09:02:32;;;;;;;2.12;1.87;;;21.20;36.60;;;;;;1876379;76;21177;-62
2022/04/12 09:04:59;;;;;;;7.35;2.98;;;21.20;36.40;;;;;;1883648;75;21084;-61
2022/04/12 09:07:27;;;;;;;8.23;1.87;;;21.30;36.60;;;;;;1877049;76;21151;-62
2022/04/12 09:10:03;;;;;;;8.20;1.82;;;21.30;36.40;;;;;;1877366;76;21090;-63
2022/04/12 09:12:34;;;;;;;4.55;1.75;;;21.30;36.40;;;;;;1880609;76;21171;-61
2022/04/12 09:15:01;;;;;;;6.25;1.85;;;21.30;36.00;;;;;;1879611;75;21215;-61
2022/04/12 09:17:36;;;;;;;3.17;1.82;;;21.40;36.10;;;;;;1878447;76;21135;-61
2022/04/12 09:20:03;;;;;;;4.75;1.42;;;21.30;36.00;;;;;;1876630;76;21565;-61
2022/04/12 09:22:34;;;;;;;5.67;1.57;;;21.40;36.00;;;;;;1876800;76;21067;-60
2022/04/12 09:25:03;;;;;;;2.53;1.60;;;21.50;35.80;;;;;;1878375;76;21063;-60
2022/04/12 09:27:32;;;;;;;2.37;1.65;;;21.40;35.70;;;;;;1880278;76;21352;-62
2022/04/12 09:30:01;;;;;;;5.42;1.70;;;21.50;35.80;;;;;;1874518;76;21090;-62
2022/04/12 09:32:37;;;;;;;2.20;1.57;;;21.60;35.80;;;;;;1857598;76;21050;-62
2022/04/12 09:35:05;;;;;;;7.97;2.25;;;21.60;35.60;;;;;;1876147;76;21016;-61
2022/04/12 09:37:34;;;;;;;2.15;1.35;;;21.70;35.50;;;;;;1889593;75;21143;-61
2022/04/12 09:40:05;;;;;;;6.47;2.00;;;21.70;35.40;;;;;;1878471;76;21060;-63
2022/04/12 09:42:49;;;;;;;3.33;1.72;;;21.80;35.40;;;;;;1877996;75;21039;-60
2022/04/12 09:45:22;;;;;;;5.08;2.20;;;21.80;35.50;;;;;;1884793;75;21123;-64
2022/04/12 09:47:51;;;;;;;3.12;1.90;;;21.80;35.40;;;;;;1877303;75;21172;-62
2022/04/12 09:50:22;;;;;;;2.55;1.45;;;21.80;35.40;;;;;;1875430;76;21089;-62
2022/04/12 09:52:57;;;;;;;2.72;1.67;;;21.90;35.40;;;;;;1876000;76;21425;-63
2022/04/12 09:55:38;;;;;;;4.80;1.60;;;21.90;35.50;;;;;;1889986;75;21121;-61
2022/04/12 09:58:06;;;;;;;3.52;1.50;;;21.90;34.90;;;;;;1888696;75;21133;-63
2022/04/12 10:00:35;;;;;;;2.10;1.47;;;21.80;33.80;;;;;;1866664;76;22279;-61
2022/04/12 10:03:09;;;;;;;4.00;2.08;;;21.80;33.40;;;;;;1857870;77;21204;-61
2022/04/12 10:05:36;;;;;;;2.80;1.50;;;21.80;33.00;;;;;;1853425;77;21111;-63
2022/04/12 10:08:05;;;;;;;4.60;1.87;;;21.70;32.60;;;;;;1854356;77;21090;-61
2022/04/12 10:10:32;;;;;;;4.17;1.45;;;21.70;32.90;;;;;;1866206;76;21179;-62
2022/04/12 10:13:00;;;;;;;6.87;3.08;;;21.70;33.10;;;;;;1879964;76;21136;-64
2022/04/12 10:15:28;;;;;;;3.40;1.90;;;21.60;32.40;;;;;;1880261;75;21059;-61
2022/04/12 10:17:55;;;;;;;3.20;1.50;;;21.60;32.30;;;;;;1880018;75;21016;-63
2022/04/12 10:20:22;;;;;;;1.82;1.37;;;21.60;32.10;;;;;;1879580;76;21122;-64
2022/04/12 10:22:50;;;;;;;3.75;2.00;;;21.50;32.30;;;;;;1880873;76;21074;-62
2022/04/12 10:25:20;;;;;;;3.00;1.67;;;21.50;33.30;;;;;;1880892;75;21187;-62
2022/04/12 10:27:49;;;;;;;2.95;1.42;;;21.50;32.50;;;;;;1879609;76;21090;-62
2022/04/12 10:30:26;;;;;;;2.77;1.60;;;21.50;32.80;;;;;;1872813;76;21094;-62
2022/04/12 10:33:11;;;;;;;5.60;1.82;;;21.50;32.10;;;;;;1878628;76;21521;-63
2022/04/12 10:35:55;;;;;;;3.35;1.80;;;21.50;32.20;;;;;;1870860;76;21099;-62
2022/04/12 10:38:20;;;;;;;2.05;1.15;;;21.60;31.90;;;;;;1868881;76;21090;-63
2022/04/12 10:40:49;;;;;;;3.10;1.37;;;21.70;31.80;;;;;;1869302;76;21094;-61
2022/04/12 10:43:34;;;;;;;3.50;1.32;;;21.70;31.60;;;;;;1864242;76;21078;-62
2022/04/12 10:46:11;;;;;;;2.47;1.20;;;21.80;32.00;;;;;;1868071;76;21125;-60
2022/04/12 10:48:35;;;;;;;1.87;1.15;;;21.80;31.70;;;;;;1868136;76;21398;-62
2022/04/12 10:51:04;;;;;;;5.03;2.00;;;21.80;31.30;;;;;;1869237;76;21094;-60
2022/04/12 10:53:41;;;;;;;5.22;1.22;;;21.90;31.20;;;;;;1865117;76;21478;-61
2022/04/12 10:56:16;;;;;;;2.47;1.55;;;21.90;31.40;;;;;;1854793;77;21680;-61
2022/04/12 10:58:44;;;;;;;5.97;1.65;;;21.90;31.60;;;;;;1854822;77;21186;-61
2022/04/12 11:01:29;;;;;;;16.00;1.67;;;21.90;32.10;;;;;;1835718;77;21163;-61
2022/04/12 11:03:56;;;;;;;3.15;1.40;;;22.00;32.40;;;;;;1837874;76;21207;-61
2022/04/12 11:06:26;;;;;;;5.85;1.52;;;22.00;32.50;;;;;;1869199;76;21110;-60
2022/04/12 11:08:58;;;;;;;5.15;1.40;;;22.00;33.10;;;;;;1870176;76;21106;-62
2022/04/12 11:11:30;;;;;;;3.92;1.62;;;22.00;33.10;;;;;;1868370;76;21157;-52
2022/04/12 11:14:01;;;;;;;14.30;1.40;;;22.10;33.30;;;;;;1849913;76;21168;-55
2022/04/12 11:16:28;;;;;;;10.68;1.72;;;22.00;31.60;;;;;;1864332;76;21881;-59
2022/04/12 11:18:57;;;;;;;4.70;1.60;;;21.80;31.40;;;;;;1833481;78;21138;-49
2022/04/12 11:21:26;;;;;;;5.12;1.30;;;21.20;31.60;;;;;;1871695;76;21551;-55
2022/04/12 11:23:58;;;;;;;4.53;1.70;;;20.90;32.40;;;;;;1820380;77;21219;-55
2022/04/12 11:26:27;;;;;;;7.92;1.20;;;20.70;31.30;;;;;;1817304;78;21490;-51
2022/04/12 11:28:57;;;;;;;2.45;1.40;;;20.40;31.50;;;;;;1773315;79;21595;-54
2022/04/12 11:31:24;;;;;;;4.53;1.57;;;20.50;31.60;;;;;;1836782;76;22175;-53
2022/04/12 11:33:52;;;;;;;3.30;1.30;;;20.50;32.10;;;;;;1828586;78;21297;-51
2022/04/12 11:36:19;;;;;;;9.40;1.60;;;20.60;31.70;;;;;;1832701;78;21565;-48
2022/04/12 11:38:48;;;;;;;4.72;1.52;;;20.50;30.70;;;;;;1856430;76;21106;-57
2022/04/12 11:41:16;;;;;;;6.53;1.47;;;20.50;31.70;;;;;;1852970;76;21157;-56
2022/04/12 11:43:43;;;;;;;9.98;1.90;;;20.50;30.00;;;;;;1871274;76;21641;-58
2022/04/12 11:46:10;;;;;;;2.75;1.47;;;20.60;31.30;;;;;;1870312;76;21105;-56
2022/04/12 11:48:38;;;;;;;5.20;1.30;;;20.50;30.80;;;;;;1821507;76;21456;-55
2022/04/12 11:51:06;;;;;;;3.15;1.00;;;20.50;29.50;;;;;;1870761;76;21558;-54
2022/04/12 11:53:33;;;;;;;1.60;1.02;;;20.60;27.70;;;;;;1846899;76;21023;-57
2022/04/12 11:56:04;;;;;;;6.60;1.45;;;20.50;26.50;;;;;;1851214;76;21103;-55
2022/04/12 11:58:31;;;;;;;7.22;1.50;;;20.50;29.10;;;;;;1864568;76;21156;-57
2022/04/12 12:00:59;;;;;;;2.83;1.42;;;20.60;29.30;;;;;;1872995;76;21166;-56
2022/04/12 12:03:27;;;;;;;5.55;1.55;;;20.50;29.40;;;;;;1877495;75;21505;-60
2022/04/12 12:05:54;;;;;;;5.47;1.82;;;20.70;30.50;;;;;;1876433;75;21156;-62
2022/04/12 12:08:22;;;;;;;6.12;1.20;;;20.60;30.10;;;;;;1833470;76;21662;-58
2022/04/12 12:10:53;;;;;;;3.85;1.30;;;20.70;30.50;;;;;;1878030;75;21038;-59
2022/04/12 12:13:21;;;;;;;;;;;20.80;29.10;;;;;;1894933;75;21560;-61
2022/04/12 12:15:48;;;;;;;3.75;1.60;;;20.60;30.00;;;;;;1870887;76;20168;-60
2022/04/12 12:18:18;;;;;;;4.10;1.10;;;20.40;29.10;;;;;;1875255;76;21102;-61
2022/04/12 12:20:45;;;;;;;3.65;1.40;;;20.50;30.60;;;;;;1876772;76;21047;-58
2022/04/12 12:23:12;;;;;;;6.35;1.50;;;20.60;29.40;;;;;;1820736;75;21113;-59
2022/04/12 12:25:50;;;;;;;4.75;1.17;;;20.60;30.00;;;;;;1882374;75;21662;-59
2022/04/12 12:28:19;;;;;;;5.47;1.40;;;20.70;30.80;;;;;;1856109;76;21210;-59
2022/04/12 12:30:47;;;;;;;5.25;1.42;;;20.70;29.50;;;;;;1863239;76;21436;-62
2022/04/12 12:33:15;;;;;;;3.22;1.40;;;20.70;29.20;;;;;;1873704;76;21115;-60
2022/04/12 12:35:47;;;;;;;7.85;1.25;;;20.70;28.60;;;;;;1875265;76;21117;-59
2022/04/12 12:38:16;;;;;;;1.47;1.10;;;20.80;29.70;;;;;;1879286;75;21125;-60
2022/04/12 12:40:44;;;;;;;3.10;1.20;;;20.80;29.20;;;;;;1886214;75;21143;-60
2022/04/12 12:43:12;;;;;;;3.75;1.62;;;20.80;29.70;;;;;;1876015;76;21748;-58
2022/04/12 12:45:45;;;;;;;3.00;1.27;;;20.80;29.50;;;;;;1879219;76;21103;-58
2022/04/12 12:48:15;;;;;;;2.85;1.20;;;20.80;29.90;;;;;;1879094;75;21160;-59
2022/04/12 12:50:42;;;;;;;6.50;1.50;;;20.90;30.00;;;;;;1887736;75;21141;-60
2022/04/12 12:53:12;;;;;;;5.55;1.57;;;20.80;29.50;;;;;;1881812;75;21180;-59
2022/04/12 12:55:49;;;;;;;5.05;1.20;;;20.80;29.00;;;;;;1880096;75;21594;-61